Time;durP1;ratioP1;P1;durP2;ratioP2;P2;SDS_P1;SDS_P2;PMS_P1;PMS_P2;Temp;Humidity;BMP_temperature;BMP_pressure;BME280_temperature;BME280_humidity;BME280_pressure;Samples;Min_cycle;Max_cycle;Signal;HPM_P1;HPM_P2
2022/04/15 00:00:45;;;;;;;15.07;10.23;;;;;;;;;;4976640;28;20398;-36
2022/04/15 00:03:11;;;;;;;15.83;10.57;;;;;;;;;;4976151;28;20243;-36
2022/04/15 00:05:40;;;;;;;18.43;11.43;;;;;;;;;;4974030;28;20211;-36
2022/04/15 00:08:10;;;;;;;15.80;10.10;;;;;;;;;;4979295;28;20176;-36
2022/04/15 00:10:37;;;;;;;15.37;10.63;;;;;;;;;;4977543;28;20435;-35
2022/04/15 00:13:06;;;;;;;17.23;10.57;;;;;;;;;;4975712;28;21093;-35
2022/04/15 00:15:33;;;;;;;14.90;10.73;;;;;;;;;;4976468;28;20187;-36
2022/04/15 00:17:59;;;;;;;16.97;11.53;;;;;;;;;;4977071;28;20395;-36
2022/04/15 00:20:29;;;;;;;16.40;11.23;;;;;;;;;;4970778;28;20177;-36
2022/04/15 00:22:58;;;;;;;17.50;11.60;;;;;;;;;;4977117;28;20193;-35
2022/04/15 00:25:24;;;;;;;20.00;11.87;;;;;;;;;;4968638;28;20485;-35
2022/04/15 00:27:50;;;;;;;17.00;12.27;;;;;;;;;;4973240;28;20359;-36
2022/04/15 00:30:16;;;;;;;15.30;11.77;;;;;;;;;;4972818;28;20177;-35
2022/04/15 00:32:42;;;;;;;18.13;11.27;;;;;;;;;;4975660;28;20942;-35
2022/04/15 00:35:09;;;;;;;20.30;11.53;;;;;;;;;;4974884;28;20613;-36
2022/04/15 00:37:35;;;;;;;20.97;12.63;;;;;;;;;;4974267;28;20486;-36
2022/04/15 00:40:02;;;;;;;17.80;12.17;;;;;;;;;;4975776;28;20791;-36
2022/04/15 00:42:29;;;;;;;19.17;12.97;;;;;;;;;;4975248;28;20907;-35
2022/04/15 00:44:55;;;;;;;15.40;11.53;;;;;;;;;;4976676;28;20764;-35
2022/04/15 00:47:40;;;;;;;18.10;12.47;;;;;;;;;;4968436;28;20430;-36
2022/04/15 00:50:06;;;;;;;20.73;12.93;;;;;;;;;;4977382;28;20177;-36
2022/04/15 00:52:35;;;;;;;17.33;11.77;;;;;;;;;;4977704;28;20185;-35
2022/04/15 00:55:05;;;;;;;17.70;12.20;;;;;;;;;;4983256;28;20735;-36
2022/04/15 00:57:33;;;;;;;20.97;12.73;;;;;;;;;;4980482;28;20553;-36
2022/04/15 01:00:01;;;;;;;17.50;11.63;;;;;;;;;;4977184;28;20217;-36
2022/04/15 01:02:28;;;;;;;17.70;12.50;;;;;;;;;;4977824;28;20185;-36
2022/04/15 01:04:56;;;;;;;18.90;12.90;;;;;;;;;;4978965;28;20762;-36
2022/04/15 01:07:24;;;;;;;18.23;13.07;;;;;;;;;;4977723;28;20492;-36
2022/04/15 01:09:51;;;;;;;17.57;11.80;;;;;;;;;;4976164;28;20348;-36
2022/04/15 01:12:28;;;;;;;17.07;12.53;;;;;;;;;;4977295;28;20174;-36
2022/04/15 01:14:55;;;;;;;18.77;12.00;;;;;;;;;;4978455;28;20177;-36
2022/04/15 01:17:21;;;;;;;16.60;12.57;;;;;;;;;;4977582;28;20185;-36
2022/04/15 01:19:47;;;;;;;18.40;11.97;;;;;;;;;;4979300;28;20251;-36
2022/04/15 01:22:15;;;;;;;20.27;12.03;;;;;;;;;;4973723;28;20238;-36
2022/04/15 01:24:41;;;;;;;20.77;12.30;;;;;;;;;;4979424;28;20177;-36
2022/04/15 01:27:08;;;;;;;18.50;11.50;;;;;;;;;;4979628;28;20192;-35
2022/04/15 01:29:38;;;;;;;18.97;12.60;;;;;;;;;;4976402;28;20895;-36
2022/04/15 01:32:05;;;;;;;18.17;11.53;;;;;;;;;;4977547;28;20165;-36
2022/04/15 01:34:32;;;;;;;16.50;11.10;;;;;;;;;;4979755;28;20205;-36
2022/04/15 01:37:00;;;;;;;18.17;12.33;;;;;;;;;;4982547;28;20518;-36
2022/04/15 01:39:27;;;;;;;20.57;11.73;;;;;;;;;;4983192;28;20168;-36
2022/04/15 01:41:53;;;;;;;16.67;11.47;;;;;;;;;;4978694;28;20517;-36
2022/04/15 01:44:19;;;;;;;18.43;12.93;;;;;;;;;;4974580;28;20479;-36
2022/04/15 01:46:45;;;;;;;20.93;12.57;;;;;;;;;;4976257;28;20730;-36
2022/04/15 01:49:11;;;;;;;17.60;12.33;;;;;;;;;;4976188;28;20176;-36
2022/04/15 01:51:37;;;;;;;17.77;12.70;;;;;;;;;;4977112;28;20511;-36
2022/04/15 01:54:04;;;;;;;20.17;13.37;;;;;;;;;;4976761;28;20685;-36
2022/04/15 01:56:30;;;;;;;20.27;13.07;;;;;;;;;;4979726;28;20616;-36
2022/04/15 01:58:56;;;;;;;17.70;11.80;;;;;;;;;;4978340;28;20500;-36
2022/04/15 02:01:22;;;;;;;16.23;11.70;;;;;;;;;;4978249;28;20421;-36
2022/04/15 02:03:49;;;;;;;20.60;13.37;;;;;;;;;;4982031;28;20173;-36
2022/04/15 02:06:15;;;;;;;20.50;13.00;;;;;;;;;;4980254;28;20189;-35
2022/04/15 02:08:41;;;;;;;21.80;13.00;;;;;;;;;;4975658;28;20399;-36
2022/04/15 02:11:08;;;;;;;21.33;14.37;;;;;;;;;;4977348;28;20192;-36
2022/04/15 02:13:34;;;;;;;18.70;13.07;;;;;;;;;;5009740;28;20181;-35
2022/04/15 02:16:00;;;;;;;20.27;13.70;;;;;;;;;;4982278;28;20660;-35
2022/04/15 02:18:26;;;;;;;20.57;13.63;;;;;;;;;;4976676;28;20315;-36
2022/04/15 02:20:53;;;;;;;22.87;12.87;;;;;;;;;;4976030;28;20536;-36
2022/04/15 02:23:19;;;;;;;18.60;12.97;;;;;;;;;;4979756;28;20664;-36
2022/04/15 02:25:45;;;;;;;20.17;12.20;;;;;;;;;;4974642;28;20343;-36
2022/04/15 02:28:11;;;;;;;19.70;12.40;;;;;;;;;;4973438;28;20340;-36
2022/04/15 02:30:37;;;;;;;20.00;11.90;;;;;;;;;;4961520;28;20382;-36
2022/04/15 02:33:03;;;;;;;18.60;12.50;;;;;;;;;;4974806;28;20292;-35
2022/04/15 02:35:30;;;;;;;18.77;11.87;;;;;;;;;;4975540;28;20724;-36
2022/04/15 02:37:56;;;;;;;21.07;11.73;;;;;;;;;;4978201;28;20329;-35
2022/04/15 02:40:22;;;;;;;17.33;11.83;;;;;;;;;;4978683;28;20829;-36
2022/04/15 02:42:48;;;;;;;20.40;12.87;;;;;;;;;;4973484;28;20265;-36
2022/04/15 02:45:14;;;;;;;18.90;12.67;;;;;;;;;;4974911;28;20306;-36
2022/04/15 02:47:41;;;;;;;17.20;11.47;;;;;;;;;;4976924;28;20173;-35
2022/04/15 02:50:07;;;;;;;21.17;13.27;;;;;;;;;;4979686;28;20447;-35
2022/04/15 02:52:34;;;;;;;18.37;12.70;;;;;;;;;;4975183;28;20190;-36
2022/04/15 02:55:00;;;;;;;23.67;13.70;;;;;;;;;;4974572;28;20244;-36
2022/04/15 02:57:26;;;;;;;21.17;13.27;;;;;;;;;;4980106;28;20173;-35
2022/04/15 02:59:52;;;;;;;19.73;13.23;;;;;;;;;;4975335;28;20811;-36
2022/04/15 03:02:18;;;;;;;19.57;13.93;;;;;;;;;;4976791;28;20327;-35
2022/04/15 03:04:44;;;;;;;23.27;14.60;;;;;;;;;;4976401;28;20177;-36
2022/04/15 03:07:11;;;;;;;20.80;14.27;;;;;;;;;;4979100;28;20604;-36
2022/04/15 03:09:37;;;;;;;22.43;16.17;;;;;;;;;;4974151;28;20601;-36
2022/04/15 03:12:03;;;;;;;23.63;16.40;;;;;;;;;;4976205;28;20426;-35
2022/04/15 03:14:29;;;;;;;22.97;16.23;;;;;;;;;;4974734;28;20181;-36
2022/04/15 03:16:55;;;;;;;17.80;14.10;;;;;;;;;;4975341;28;22607;-36
2022/04/15 03:19:21;;;;;;;21.83;15.70;;;;;;;;;;4974139;28;20614;-38
2022/04/15 03:21:47;;;;;;;21.80;16.33;;;;;;;;;;4974510;28;20270;-36
2022/04/15 03:24:13;;;;;;;23.83;16.30;;;;;;;;;;4979632;28;20439;-36
2022/04/15 03:26:39;;;;;;;21.30;15.67;;;;;;;;;;4970271;28;20757;-35
2022/04/15 03:29:06;;;;;;;20.10;14.13;;;;;;;;;;4976634;28;20431;-35
2022/04/15 03:31:32;;;;;;;26.67;16.80;;;;;;;;;;4976217;28;20412;-36
2022/04/15 03:33:58;;;;;;;24.50;15.50;;;;;;;;;;4975694;28;21136;-36
2022/04/15 03:36:24;;;;;;;25.80;16.33;;;;;;;;;;4974132;28;20435;-36
2022/04/15 03:38:50;;;;;;;22.70;14.63;;;;;;;;;;4979854;28;21587;-36
2022/04/15 03:41:17;;;;;;;19.43;14.77;;;;;;;;;;4981725;28;20419;-36
2022/04/15 03:43:43;;;;;;;24.60;15.97;;;;;;;;;;4981954;28;21297;-36
2022/04/15 03:46:09;;;;;;;23.07;14.97;;;;;;;;;;4975597;28;21047;-36
2022/04/15 03:48:35;;;;;;;22.60;15.63;;;;;;;;;;4973910;28;21100;-36
2022/04/15 03:51:01;;;;;;;24.47;16.80;;;;;;;;;;4972362;28;20935;-36
2022/04/15 03:53:27;;;;;;;23.90;17.20;;;;;;;;;;4974049;28;20694;-36
2022/04/15 03:55:53;;;;;;;28.73;17.70;;;;;;;;;;4975907;28;20427;-36
2022/04/15 03:58:19;;;;;;;23.73;16.77;;;;;;;;;;4975071;28;20435;-36
2022/04/15 04:00:46;;;;;;;23.57;17.37;;;;;;;;;;4979247;28;20475;-36
2022/04/15 04:03:13;;;;;;;24.93;18.03;;;;;;;;;;4973599;28;20435;-36
2022/04/15 04:05:40;;;;;;;27.73;19.47;;;;;;;;;;4973089;28;20459;-35
2022/04/15 04:08:06;;;;;;;23.57;17.77;;;;;;;;;;4978047;28;20428;-36
2022/04/15 04:10:33;;;;;;;27.50;19.10;;;;;;;;;;4978644;28;20431;-35
2022/04/15 04:13:00;;;;;;;29.67;19.00;;;;;;;;;;4978947;28;20423;-36
2022/04/15 04:15:26;;;;;;;27.40;19.13;;;;;;;;;;4970524;28;20431;-36
2022/04/15 04:17:53;;;;;;;24.13;18.20;;;;;;;;;;4981352;28;20688;-35
2022/04/15 04:20:19;;;;;;;28.73;19.77;;;;;;;;;;4977965;28;20180;-36
2022/04/15 04:22:45;;;;;;;35.03;22.53;;;;;;;;;;4980373;28;20997;-35
2022/04/15 04:25:11;;;;;;;31.70;21.67;;;;;;;;;;4978311;28;20696;-36
2022/04/15 04:27:37;;;;;;;26.33;19.60;;;;;;;;;;4981193;28;20500;-36
2022/04/15 04:30:05;;;;;;;27.27;20.83;;;;;;;;;;4984252;28;20511;-35
2022/04/15 04:32:31;;;;;;;26.90;18.43;;;;;;;;;;4986053;28;20748;-36
2022/04/15 04:34:57;;;;;;;35.80;20.33;;;;;;;;;;4993355;28;21069;-36
2022/04/15 04:37:23;;;;;;;33.93;20.33;;;;;;;;;;4985160;28;20442;-36
2022/04/15 04:39:49;;;;;;;34.83;21.33;;;;;;;;;;4976368;28;20479;-35
2022/04/15 04:42:16;;;;;;;31.67;21.40;;;;;;;;;;4981454;28;20427;-36
2022/04/15 04:44:42;;;;;;;30.60;20.37;;;;;;;;;;4979297;28;20745;-36
2022/04/15 04:47:10;;;;;;;28.40;20.33;;;;;;;;;;4975994;28;20530;-36
2022/04/15 04:49:36;;;;;;;28.90;20.03;;;;;;;;;;4972582;28;20551;-36
2022/04/15 04:52:03;;;;;;;29.20;19.87;;;;;;;;;;4982127;28;20510;-36
2022/04/15 04:54:29;;;;;;;29.17;19.30;;;;;;;;;;4981834;28;21339;-35
2022/04/15 04:56:55;;;;;;;28.93;19.50;;;;;;;;;;4979736;28;20741;-36
2022/04/15 04:59:32;;;;;;;30.33;19.17;;;;;;;;;;4980671;28;20435;-36
2022/04/15 05:01:58;;;;;;;29.27;19.23;;;;;;;;;;4981619;28;20431;-36
2022/04/15 05:04:24;;;;;;;30.13;20.10;;;;;;;;;;4983767;28;20419;-36
2022/04/15 05:06:51;;;;;;;26.83;19.03;;;;;;;;;;4980726;28;20783;-36
2022/04/15 05:09:18;;;;;;;35.67;19.20;;;;;;;;;;4976377;28;20415;-36
2022/04/15 05:11:44;;;;;;;32.73;21.33;;;;;;;;;;4978736;28;20477;-36
2022/04/15 05:14:10;;;;;;;31.70;19.90;;;;;;;;;;4979823;28;20466;-36
2022/04/15 05:16:36;;;;;;;33.87;19.20;;;;;;;;;;4983935;28;20679;-36
2022/04/15 05:19:02;;;;;;;29.17;18.47;;;;;;;;;;4981574;28;20527;-36
2022/04/15 05:21:28;;;;;;;31.63;19.60;;;;;;;;;;4976077;28;20454;-36
2022/04/15 05:23:54;;;;;;;36.17;20.03;;;;;;;;;;4979982;28;20423;-36
2022/04/15 05:26:21;;;;;;;29.30;18.67;;;;;;;;;;4977815;28;21420;-36
2022/04/15 05:28:47;;;;;;;31.77;19.47;;;;;;;;;;4975145;28;21342;-36
2022/04/15 05:31:13;;;;;;;25.20;17.83;;;;;;;;;;4968609;28;20445;-36
2022/04/15 05:33:39;;;;;;;30.10;19.00;;;;;;;;;;4975697;28;20416;-36
2022/04/15 05:36:05;;;;;;;32.13;18.80;;;;;;;;;;5002177;28;20432;-36
2022/04/15 05:38:31;;;;;;;36.27;20.17;;;;;;;;;;4981708;28;20423;-35
2022/04/15 05:40:57;;;;;;;26.13;17.43;;;;;;;;;;4979921;28;20467;-35
2022/04/15 05:43:24;;;;;;;36.87;18.87;;;;;;;;;;4978665;28;20169;-36
2022/04/15 05:45:50;;;;;;;30.93;18.73;;;;;;;;;;4979873;28;20194;-35
2022/04/15 05:48:16;;;;;;;28.47;18.47;;;;;;;;;;4978839;28;21120;-35
2022/04/15 05:50:42;;;;;;;28.33;18.47;;;;;;;;;;4980210;28;20724;-35
2022/04/15 05:53:08;;;;;;;25.70;18.10;;;;;;;;;;4978281;28;20408;-35
2022/04/15 05:55:35;;;;;;;25.43;18.03;;;;;;;;;;4982675;28;20430;-35
2022/04/15 05:58:02;;;;;;;29.80;17.80;;;;;;;;;;4985084;28;20432;-35
2022/04/15 06:00:28;;;;;;;31.07;18.13;;;;;;;;;;4980620;28;20262;-35
2022/04/15 06:02:54;;;;;;;28.90;16.73;;;;;;;;;;4979323;28;20429;-35
2022/04/15 06:05:22;;;;;;;26.73;17.53;;;;;;;;;;4982480;28;20532;-35
2022/04/15 06:07:48;;;;;;;30.43;17.37;;;;;;;;;;4981331;28;20177;-36
2022/04/15 06:10:14;;;;;;;24.27;15.77;;;;;;;;;;4980336;28;20181;-36
2022/04/15 06:15:28;;;;;;;26.17;16.17;;;;;;;;;;4986001;28;20262;-35
2022/04/15 06:17:55;;;;;;;29.73;16.10;;;;;;;;;;4980724;28;20203;-35
2022/04/15 06:20:21;;;;;;;28.53;16.00;;;;;;;;;;4980143;28;20169;-34
2022/04/15 06:22:47;;;;;;;26.40;15.70;;;;;;;;;;4978644;28;20177;-35
2022/04/15 06:25:13;;;;;;;28.27;16.53;;;;;;;;;;4977003;28;20207;-35
2022/04/15 06:27:39;;;;;;;31.83;16.33;;;;;;;;;;4978706;28;20165;-35
2022/04/15 06:30:07;;;;;;;25.93;16.57;;;;;;;;;;4972882;28;20180;-35
2022/04/15 06:32:34;;;;;;;21.60;15.67;;;;;;;;;;4973077;28;20191;-35
2022/04/15 06:35:00;;;;;;;31.07;17.23;;;;;;;;;;4976376;28;20183;-35
2022/04/15 06:37:26;;;;;;;27.63;17.23;;;;;;;;;;4980131;28;20193;-35
2022/04/15 06:39:52;;;;;;;26.97;17.50;;;;;;;;;;4977482;28;20169;-35
2022/04/15 06:42:21;;;;;;;25.80;18.07;;;;;;;;;;4980386;28;20189;-35
2022/04/15 06:44:48;;;;;;;29.70;17.63;;;;;;;;;;5007033;28;20811;-35
2022/04/15 06:47:14;;;;;;;31.10;17.70;;;;;;;;;;4974753;28;20624;-36
2022/04/15 06:49:40;;;;;;;27.97;16.73;;;;;;;;;;4980053;28;20173;-36
2022/04/15 06:52:07;;;;;;;26.57;16.80;;;;;;;;;;4983129;28;21078;-35
2022/04/15 06:54:33;;;;;;;25.43;17.43;;;;;;;;;;4982351;28;20731;-35
2022/04/15 06:56:59;;;;;;;31.03;17.97;;;;;;;;;;4979268;28;20493;-35
2022/04/15 06:59:25;;;;;;;30.23;15.57;;;;;;;;;;4983159;28;20327;-34
2022/04/15 07:01:52;;;;;;;27.17;17.00;;;;;;;;;;4978237;28;20189;-37
2022/04/15 07:04:18;;;;;;;26.10;16.83;;;;;;;;;;4979139;28;20363;-37
2022/04/15 07:06:44;;;;;;;26.77;15.90;;;;;;;;;;4981702;28;20225;-35
2022/04/15 07:09:10;;;;;;;24.37;16.07;;;;;;;;;;4980247;28;20181;-35
2022/04/15 07:11:36;;;;;;;24.33;15.80;;;;;;;;;;4979622;28;20747;-35
2022/04/15 07:14:05;;;;;;;27.57;15.90;;;;;;;;;;4978172;28;20554;-37
2022/04/15 07:16:31;;;;;;;23.43;14.90;;;;;;;;;;4975927;28;20482;-35
2022/04/15 07:18:57;;;;;;;22.97;15.30;;;;;;;;;;4974487;28;20439;-35
2022/04/15 07:21:24;;;;;;;28.27;15.70;;;;;;;;;;4986959;28;20180;-37
2022/04/15 07:23:50;;;;;;;25.53;14.70;;;;;;;;;;4992821;28;20795;-35
2022/04/15 07:26:16;;;;;;;25.30;15.17;;;;;;;;;;4978319;28;20713;-36
2022/04/15 07:28:42;;;;;;;26.83;15.83;;;;;;;;;;4976819;28;20279;-36
2022/04/15 07:31:09;;;;;;;26.20;16.17;;;;;;;;;;4979104;28;20184;-36
2022/04/15 07:33:35;;;;;;;24.40;15.13;;;;;;;;;;4980927;28;20228;-36
2022/04/15 07:36:03;;;;;;;22.20;15.50;;;;;;;;;;4977986;28;20454;-37
2022/04/15 07:38:29;;;;;;;26.67;14.77;;;;;;;;;;4977287;28;21098;-36
2022/04/15 07:40:55;;;;;;;25.13;15.73;;;;;;;;;;4975025;28;20181;-36
2022/04/15 07:43:22;;;;;;;22.00;15.23;;;;;;;;;;4976125;28;20215;-36
2022/04/15 07:45:48;;;;;;;22.83;15.50;;;;;;;;;;4980465;28;20235;-36
2022/04/15 07:48:14;;;;;;;26.90;15.83;;;;;;;;;;4974335;28;20593;-36
2022/04/15 07:50:40;;;;;;;23.13;16.03;;;;;;;;;;4977033;28;20170;-36
2022/04/15 07:53:06;;;;;;;25.07;14.87;;;;;;;;;;4979840;28;20166;-37
2022/04/15 07:55:32;;;;;;;24.07;15.10;;;;;;;;;;4977204;28;20299;-36
2022/04/15 07:57:58;;;;;;;25.63;14.40;;;;;;;;;;4978046;28;20267;-37
2022/04/15 08:00:24;;;;;;;23.53;14.27;;;;;;;;;;4977872;28;20184;-36
2022/04/15 08:02:51;;;;;;;23.13;14.73;;;;;;;;;;4974499;28;20510;-36
2022/04/15 08:05:17;;;;;;;24.73;15.13;;;;;;;;;;4974607;28;20197;-36
2022/04/15 08:07:43;;;;;;;23.93;15.30;;;;;;;;;;4975492;28;20177;-36
2022/04/15 08:10:09;;;;;;;20.17;13.33;;;;;;;;;;4976957;28;20177;-36
2022/04/15 08:12:36;;;;;;;24.33;14.73;;;;;;;;;;4974013;28;20496;-37
2022/04/15 08:15:03;;;;;;;19.10;13.43;;;;;;;;;;4977706;28;20180;-34
2022/04/15 08:17:29;;;;;;;21.60;14.10;;;;;;;;;;4977427;28;20383;-36
2022/04/15 08:19:55;;;;;;;21.53;14.30;;;;;;;;;;4977946;28;20173;-37
2022/04/15 08:22:21;;;;;;;19.03;13.30;;;;;;;;;;4974909;28;20390;-37
2022/04/15 08:24:47;;;;;;;20.93;13.00;;;;;;;;;;4995995;28;20490;-37
2022/04/15 08:27:13;;;;;;;18.20;11.40;;;;;;;;;;4978079;28;20197;-37
2022/04/15 08:29:39;;;;;;;21.80;10.03;;;;;;;;;;4979018;28;20173;-37
2022/04/15 08:32:09;;;;;;;16.93;10.87;;;;;;;;;;4973542;28;20250;-37
2022/04/15 08:34:39;;;;;;;15.90;9.73;;;;;;;;;;4967413;28;20564;-37
2022/04/15 08:37:05;;;;;;;15.53;9.97;;;;;;;;;;4976575;28;20193;-37
2022/04/15 08:39:31;;;;;;;19.07;11.60;;;;;;;;;;4979342;28;20180;-38
2022/04/15 08:41:58;;;;;;;17.47;11.63;;;;;;;;;;4975699;28;20330;-35
2022/04/15 08:44:25;;;;;;;16.80;11.27;;;;;;;;;;4980490;28;20173;-35
2022/04/15 08:46:51;;;;;;;18.87;9.90;;;;;;;;;;4976279;28;20193;-36
2022/04/15 08:49:19;;;;;;;13.27;9.27;;;;;;;;;;4974125;28;20174;-36
2022/04/15 08:51:52;;;;;;;15.83;10.43;;;;;;;;;;4976768;28;20169;-36
2022/04/15 08:54:21;;;;;;;23.30;11.37;;;;;;;;;;4980580;28;21087;-36
2022/04/15 08:56:47;;;;;;;20.37;11.17;;;;;;;;;;5011092;28;20674;-36
2022/04/15 08:59:14;;;;;;;17.47;10.87;;;;;;;;;;4976245;28;20224;-36
2022/04/15 09:01:40;;;;;;;13.30;8.07;;;;;;;;;;4977863;28;20454;-35
2022/04/15 09:04:06;;;;;;;14.53;8.90;;;;;;;;;;4980657;28;20465;-36
2022/04/15 09:06:32;;;;;;;17.07;9.50;;;;;;;;;;4976529;28;20193;-36
2022/04/15 09:08:59;;;;;;;16.93;11.53;;;;;;;;;;4978666;28;20675;-36
2022/04/15 09:11:33;;;;;;;20.53;11.90;;;;;;;;;;4985429;28;21011;-35
2022/04/15 09:14:13;;;;;;;19.67;11.67;;;;;;;;;;4982898;28;20176;-36
2022/04/15 09:16:41;;;;;;;17.83;11.50;;;;;;;;;;4984415;28;20344;-36
2022/04/15 09:19:09;;;;;;;16.57;10.80;;;;;;;;;;4976527;28;20255;-36
2022/04/15 09:21:35;;;;;;;20.70;11.37;;;;;;;;;;4979798;28;20174;-36
2022/04/15 09:24:03;;;;;;;16.00;10.57;;;;;;;;;;4982059;28;20720;-36
2022/04/15 09:26:29;;;;;;;15.57;11.20;;;;;;;;;;4983510;28;20768;-36
2022/04/15 09:28:55;;;;;;;17.33;10.23;;;;;;;;;;4981372;28;20181;-37
2022/04/15 09:31:22;;;;;;;18.70;11.70;;;;;;;;;;4979247;28;20185;-36
2022/04/15 09:33:59;;;;;;;18.53;11.40;;;;;;;;;;4984654;28;20173;-36
2022/04/15 09:36:34;;;;;;;18.10;11.13;;;;;;;;;;4980548;28;20196;-37
2022/04/15 09:39:02;;;;;;;19.00;11.63;;;;;;;;;;4980770;28;20188;-37
2022/04/15 09:41:31;;;;;;;16.27;11.20;;;;;;;;;;4981111;28;20498;-37
2022/04/15 09:43:59;;;;;;;14.17;9.43;;;;;;;;;;4979706;28;20186;-37
2022/04/15 09:46:27;;;;;;;16.53;10.73;;;;;;;;;;4975405;28;20403;-37
2022/04/15 09:49:07;;;;;;;16.20;11.07;;;;;;;;;;4975101;28;20375;-37
2022/04/15 09:51:47;;;;;;;16.70;10.13;;;;;;;;;;4979881;28;20203;-37
2022/04/15 09:54:23;;;;;;;14.40;9.40;;;;;;;;;;4977791;28;20469;-36
2022/04/15 09:56:50;;;;;;;14.23;8.87;;;;;;;;;;4976581;28;20255;-35
2022/04/15 09:59:17;;;;;;;17.13;9.07;;;;;;;;;;4977903;28;20263;-36
2022/04/15 10:01:46;;;;;;;12.67;9.20;;;;;;;;;;4979872;28;20184;-36
2022/04/15 10:04:13;;;;;;;13.70;9.17;;;;;;;;;;4984151;28;20181;-35
2022/04/15 10:06:42;;;;;;;12.87;7.60;;;;;;;;;;4980834;28;20196;-36
2022/04/15 10:09:12;;;;;;;11.90;8.07;;;;;;;;;;4980969;28;20189;-35
2022/04/15 10:11:39;;;;;;;10.67;7.30;;;;;;;;;;4979673;28;20735;-36
2022/04/15 10:14:07;;;;;;;10.67;7.63;;;;;;;;;;4985373;28;20530;-35
2022/04/15 10:16:35;;;;;;;10.50;7.20;;;;;;;;;;4981353;28;20185;-36
2022/04/15 10:19:01;;;;;;;9.40;6.63;;;;;;;;;;4980242;28;20180;-36
2022/04/15 10:21:28;;;;;;;10.00;6.43;;;;;;;;;;4981021;28;20181;-36
2022/04/15 10:23:54;;;;;;;9.40;6.33;;;;;;;;;;4982471;28;20753;-36
2022/04/15 10:26:21;;;;;;;8.47;5.67;;;;;;;;;;4977483;28;20203;-35
2022/04/15 10:28:47;;;;;;;8.63;6.23;;;;;;;;;;4975076;28;20318;-35
2022/04/15 10:31:16;;;;;;;7.23;5.33;;;;;;;;;;4978231;28;20546;-36
2022/04/15 10:33:43;;;;;;;7.73;5.60;;;;;;;;;;4980675;28;20188;-36
2022/04/15 10:36:13;;;;;;;9.50;5.40;;;;;;;;;;4979552;28;20208;-35
2022/04/15 10:39:09;;;;;;;6.27;4.83;;;;;;;;;;4978545;28;20479;-35
2022/04/15 10:41:42;;;;;;;9.00;5.53;;;;;;;;;;4977680;28;20276;-35
2022/04/15 10:44:15;;;;;;;9.07;6.57;;;;;;;;;;4981884;28;20205;-35
2022/04/15 10:46:41;;;;;;;6.80;6.00;;;;;;;;;;4984591;28;20200;-35
2022/04/15 10:49:20;;;;;;;13.00;6.47;;;;;;;;;;4976855;28;20491;-35
2022/04/15 10:51:46;;;;;;;10.77;6.57;;;;;;;;;;4982199;28;20219;-35
2022/04/15 10:54:31;;;;;;;8.07;5.47;;;;;;;;;;4979550;28;21096;-35
2022/04/15 10:57:02;;;;;;;7.20;5.10;;;;;;;;;;4976269;28;20518;-35
2022/04/15 11:02:22;;;;;;;8.57;5.93;;;;;;;;;;4979615;28;21209;-36
2022/04/15 11:04:52;;;;;;;8.23;6.40;;;;;;;;;;4978681;28;20432;-35
2022/04/15 11:07:29;;;;;;;10.77;7.50;;;;;;;;;;4977884;28;20247;-35
2022/04/15 11:09:55;;;;;;;9.10;6.97;;;;;;;;;;4979170;28;21076;-35
2022/04/15 11:12:42;;;;;;;8.50;6.20;;;;;;;;;;4982352;28;20532;-35
2022/04/15 11:15:08;;;;;;;8.07;5.83;;;;;;;;;;4978620;28;20501;-35
2022/04/15 11:17:38;;;;;;;7.57;5.27;;;;;;;;;;4977324;28;20336;-35
2022/04/15 11:20:06;;;;;;;7.40;5.30;;;;;;;;;;4980338;28;20177;-35
2022/04/15 11:22:33;;;;;;;10.00;5.60;;;;;;;;;;4980381;28;20181;-35
2022/04/15 11:25:00;;;;;;;6.73;5.30;;;;;;;;;;4975877;28;20177;-35
2022/04/15 11:27:26;;;;;;;7.33;5.00;;;;;;;;;;4975530;28;20999;-35
2022/04/15 11:29:52;;;;;;;8.77;5.37;;;;;;;;;;4978372;28;21055;-35
2022/04/15 11:32:18;;;;;;;6.97;5.33;;;;;;;;;;4978918;28;20294;-35
2022/04/15 11:34:44;;;;;;;7.17;4.87;;;;;;;;;;4983437;28;20176;-35
2022/04/15 11:37:11;;;;;;;9.13;5.07;;;;;;;;;;4978930;28;20363;-35
2022/04/15 11:39:45;;;;;;;7.07;4.57;;;;;;;;;;4978932;28;20978;-35
2022/04/15 11:42:14;;;;;;;6.37;4.23;;;;;;;;;;4978912;28;20196;-35
2022/04/15 11:44:42;;;;;;;7.27;5.03;;;;;;;;;;4978118;28;20285;-35
2022/04/15 11:47:24;;;;;;;7.00;4.90;;;;;;;;;;4979331;28;20208;-35
2022/04/15 11:49:51;;;;;;;5.67;4.80;;;;;;;;;;4977845;28;20994;-35
2022/04/15 11:52:24;;;;;;;9.17;4.27;;;;;;;;;;4981750;28;20263;-35
2022/04/15 11:54:50;;;;;;;6.77;4.57;;;;;;;;;;4982227;28;20248;-35
2022/04/15 11:57:16;;;;;;;5.17;4.10;;;;;;;;;;4979877;28;20421;-35
2022/04/15 11:59:44;;;;;;;5.73;4.60;;;;;;;;;;4977832;28;20219;-35
2022/04/15 12:02:11;;;;;;;5.60;4.33;;;;;;;;;;4974463;28;20774;-35
2022/04/15 12:04:37;;;;;;;6.03;3.53;;;;;;;;;;4979424;28;21358;-35
2022/04/15 12:07:13;;;;;;;4.93;3.20;;;;;;;;;;4981488;28;20395;-35
2022/04/15 12:09:39;;;;;;;5.40;3.30;;;;;;;;;;4980975;28;20515;-35
2022/04/15 12:12:07;;;;;;;4.40;3.40;;;;;;;;;;4978427;28;20628;-35
2022/04/15 12:14:37;;;;;;;6.00;3.60;;;;;;;;;;4980753;28;20865;-35
2022/04/15 12:17:04;;;;;;;5.50;3.47;;;;;;;;;;4973977;28;20181;-35
2022/04/15 12:19:30;;;;;;;5.07;3.60;;;;;;;;;;4975315;28;20189;-35
2022/04/15 12:22:00;;;;;;;6.70;3.87;;;;;;;;;;4977944;28;20180;-35
2022/04/15 12:24:30;;;;;;;4.60;3.33;;;;;;;;;;4978850;28;20405;-35
2022/04/15 12:27:00;;;;;;;7.57;3.70;;;;;;;;;;4975447;28;20749;-35
2022/04/15 12:32:15;;;;;;;6.33;3.30;;;;;;;;;;4977759;28;20639;-35
2022/04/15 12:34:42;;;;;;;3.27;2.97;;;;;;;;;;4979589;28;20706;-36
2022/04/15 12:37:28;;;;;;;4.77;3.10;;;;;;;;;;4977365;28;20213;-35
2022/04/15 12:39:54;;;;;;;5.63;3.70;;;;;;;;;;4977995;28;20594;-35
2022/04/15 12:42:27;;;;;;;3.23;2.87;;;;;;;;;;4981337;28;20177;-36
2022/04/15 12:44:53;;;;;;;6.80;3.10;;;;;;;;;;4985808;28;20177;-36
2022/04/15 12:47:19;;;;;;;4.33;2.73;;;;;;;;;;4983053;28;20280;-35
2022/04/15 12:49:45;;;;;;;3.93;3.07;;;;;;;;;;4981874;28;20173;-36
2022/04/15 12:52:12;;;;;;;4.80;2.93;;;;;;;;;;4995210;28;20177;-36
2022/04/15 12:54:58;;;;;;;6.07;3.20;;;;;;;;;;4981829;28;20173;-36
2022/04/15 12:57:28;;;;;;;6.83;3.47;;;;;;;;;;4982674;28;20176;-35
2022/04/15 12:59:54;;;;;;;5.93;3.07;;;;;;;;;;4981371;28;20211;-36
2022/04/15 13:02:20;;;;;;;4.40;3.00;;;;;;;;;;5009703;28;20185;-36
2022/04/15 13:04:50;;;;;;;3.60;3.00;;;;;;;;;;4982218;28;20339;-36
2022/04/15 13:07:18;;;;;;;5.47;2.90;;;;;;;;;;4981260;28;20204;-36
2022/04/15 13:09:44;;;;;;;5.80;3.07;;;;;;;;;;4978877;28;20178;-36
2022/04/15 13:12:11;;;;;;;8.50;3.53;;;;;;;;;;4978439;28;21279;-36
2022/04/15 13:14:37;;;;;;;4.77;3.17;;;;;;;;;;4993886;28;20173;-36
2022/04/15 13:17:03;;;;;;;6.53;3.57;;;;;;;;;;4979278;28;20192;-35
2022/04/15 13:19:29;;;;;;;7.17;3.90;;;;;;;;;;4979863;28;20336;-36
2022/04/15 13:21:55;;;;;;;5.53;4.10;;;;;;;;;;4979222;28;20697;-36
2022/04/15 13:24:21;;;;;;;4.73;3.70;;;;;;;;;;4979552;28;20926;-36
2022/04/15 13:26:47;;;;;;;6.27;3.40;;;;;;;;;;4977994;28;20506;-36
2022/04/15 13:29:14;;;;;;;4.83;3.47;;;;;;;;;;4975774;28;20716;-36
2022/04/15 13:31:40;;;;;;;11.30;3.47;;;;;;;;;;4979936;28;20173;-36
2022/04/15 13:34:06;;;;;;;3.20;2.73;;;;;;;;;;4982065;28;20174;-36
2022/04/15 13:36:32;;;;;;;3.77;3.23;;;;;;;;;;4980982;28;20691;-36
2022/04/15 13:38:58;;;;;;;6.37;3.27;;;;;;;;;;4979438;28;20188;-36
2022/04/15 13:41:26;;;;;;;3.20;2.90;;;;;;;;;;4976941;28;20282;-36
2022/04/15 13:43:53;;;;;;;8.20;3.57;;;;;;;;;;4978549;28;20285;-36
2022/04/15 13:46:19;;;;;;;5.70;2.73;;;;;;;;;;4973024;28;20443;-36
2022/04/15 13:48:46;;;;;;;3.13;2.50;;;;;;;;;;4975799;28;20709;-37
2022/04/15 13:51:12;;;;;;;7.90;3.37;;;;;;;;;;4977242;28;20178;-36
2022/04/15 13:56:35;;;;;;;4.67;3.00;;;;;;;;;;4972742;28;20835;-36
2022/04/15 13:59:12;;;;;;;5.63;2.40;;;;;;;;;;4976556;28;20723;-36
2022/04/15 14:01:42;;;;;;;4.83;2.47;;;;;;;;;;4981099;28;20183;-35
2022/04/15 14:04:12;;;;;;;5.50;2.23;;;;;;;;;;4980591;28;20181;-36
2022/04/15 14:06:38;;;;;;;3.23;2.00;;;;;;;;;;4977796;28;20197;-36
2022/04/15 14:09:06;;;;;;;3.07;1.90;;;;;;;;;;4980684;28;20645;-35
2022/04/15 14:11:35;;;;;;;2.83;1.60;;;;;;;;;;4978482;28;20797;-36
2022/04/15 14:14:05;;;;;;;4.03;1.70;;;;;;;;;;4974224;28;20177;-36
2022/04/15 14:16:32;;;;;;;3.80;1.70;;;;;;;;;;4972853;28;20185;-36
2022/04/15 14:18:59;;;;;;;5.40;2.20;;;;;;;;;;4978007;28;20205;-36
2022/04/15 14:21:25;;;;;;;10.27;2.23;;;;;;;;;;4977609;28;20208;-35
2022/04/15 14:23:52;;;;;;;3.30;1.90;;;;;;;;;;4973962;28;20483;-36
2022/04/15 14:26:18;;;;;;;3.63;2.03;;;;;;;;;;4976220;28;20666;-36
2022/04/15 14:28:44;;;;;;;3.03;2.37;;;;;;;;;;4978172;28;20933;-35
2022/04/15 14:31:11;;;;;;;2.83;2.33;;;;;;;;;;4978167;28;20272;-36
2022/04/15 14:33:39;;;;;;;3.93;2.53;;;;;;;;;;4977043;28;20190;-36
2022/04/15 14:36:06;;;;;;;3.63;2.30;;;;;;;;;;4978460;28;20196;-36
2022/04/15 14:38:35;;;;;;;5.87;3.00;;;;;;;;;;4976975;28;20586;-36